Time;durP1;ratioP1;P1;durP2;ratioP2;P2;SDS_P1;SDS_P2;PMS_P1;PMS_P2;Temp;Humidity;BMP_temperature;BMP_pressure;BME280_temperature;BME280_humidity;BME280_pressure;Samples;Min_cycle;Max_cycle;Signal;HPM_P1;HPM_P2
2022/01/06 00:00:13;;;;;;;;;;;8.60;84.80;;;;;;5002818;28;89701;-39
2022/01/06 00:02:38;;;;;;;;;;;8.70;85.00;;;;;;5002845;28;86957;-39
2022/01/06 00:05:04;;;;;;;;;;;8.70;85.00;;;;;;5002935;28;88995;-39
2022/01/06 00:07:30;;;;;;;;;;;8.60;84.90;;;;;;5005354;28;89639;-40
2022/01/06 00:09:56;;;;;;;;;;;8.60;85.00;;;;;;5003404;28;87666;-40
2022/01/06 00:12:27;;;;;;;;;;;8.60;85.00;;;;;;5002529;28;88180;-39
2022/01/06 00:17:35;;;;;;;;;;;8.60;84.90;;;;;;5002244;28;88222;-40
2022/01/06 00:25:29;;;;;;;;;;;8.60;85.00;;;;;;5006299;28;87228;-38
2022/01/06 00:27:54;;;;;;;;;;;8.60;85.00;;;;;;5004498;28;91160;-39
2022/01/06 00:30:20;;;;;;;;;;;8.60;84.90;;;;;;5008873;28;86936;-40
2022/01/06 00:32:45;;;;;;;;;;;8.60;84.90;;;;;;5005587;28;89624;-40
2022/01/06 00:35:11;;;;;;;;;;;8.60;84.90;;;;;;5006578;28;86430;-40
2022/01/06 00:37:36;;;;;;;;;;;8.60;84.90;;;;;;5005898;28;88521;-40
2022/01/06 00:40:02;;;;;;;;;;;8.60;84.80;;;;;;5005619;28;88084;-39
2022/01/06 00:42:27;;;;;;;;;;;8.60;84.80;;;;;;5005428;28;88033;-39
2022/01/06 00:44:53;;;;;;;;;;;8.60;84.80;;;;;;5006035;28;88101;-39
2022/01/06 00:47:20;;;;;;;;;;;8.60;84.70;;;;;;5005418;28;88026;-40
2022/01/06 00:49:46;;;;;;;;;;;8.60;84.90;;;;;;5005673;28;87107;-40
2022/01/06 00:52:12;;;;;;;;;;;8.60;84.80;;;;;;5008255;28;89100;-39
2022/01/06 00:54:38;;;;;;;;;;;8.60;84.80;;;;;;5005985;28;87123;-40
2022/01/06 00:57:04;;;;;;;;;;;8.60;84.70;;;;;;5005541;28;89187;-40
2022/01/06 00:59:30;;;;;;;;;;;8.60;84.80;;;;;;5005686;28;88666;-40
2022/01/06 01:01:56;;;;;;;;;;;8.60;84.80;;;;;;5004102;28;87012;-40
2022/01/06 01:04:21;;;;;;;;;;;8.60;84.70;;;;;;5005746;28;89123;-39
2022/01/06 01:06:47;;;;;;;;;;;8.60;84.70;;;;;;5004551;28;90556;-39
2022/01/06 01:09:12;;;;;;;;;;;8.60;84.80;;;;;;5005742;28;87123;-40
2022/01/06 01:11:38;;;;;;;;;;;8.60;84.70;;;;;;5005443;28;88517;-40
2022/01/06 01:14:17;;;;;;;;;;;8.50;84.50;;;;;;5007856;28;88866;-39
2022/01/06 01:16:52;;;;;;;;;;;8.50;84.60;;;;;;5005087;28;88023;-39
2022/01/06 01:19:17;;;;;;;;;;;8.50;84.60;;;;;;5005186;28;88565;-40
2022/01/06 01:21:43;;;;;;;;;;;8.50;84.50;;;;;;5005184;28;87204;-40
2022/01/06 01:24:08;;;;;;;;;;;8.50;84.50;;;;;;5005736;28;88593;-39
2022/01/06 01:26:34;;;;;;;;;;;8.60;84.50;;;;;;5004390;28;88493;-40
2022/01/06 01:28:59;;;;;;;;;;;8.60;84.60;;;;;;5005081;28;87171;-40
2022/01/06 01:31:27;;;;;;;;;;;8.50;84.60;;;;;;5004281;28;88850;-40
2022/01/06 01:33:56;;;;;;;;;;;8.50;84.60;;;;;;5007626;28;89392;-39
2022/01/06 01:36:22;;;;;;;;;;;8.50;84.40;;;;;;5005179;28;89102;-40
2022/01/06 01:38:47;;;;;;;;;;;8.50;84.50;;;;;;5004632;28;88554;-40
2022/01/06 01:41:13;;;;;;;;;;;8.50;84.50;;;;;;5005274;28;87184;-39
2022/01/06 01:43:39;;;;;;;;;;;8.50;84.50;;;;;;5004934;28;88920;-39
2022/01/06 01:46:14;;;;;;;;;;;8.50;84.60;;;;;;5003477;28;91566;-39
2022/01/06 01:48:45;;;;;;;;;;;8.50;84.50;;;;;;5005499;28;86313;-39
2022/01/06 01:51:10;;;;;;;;;;;8.50;84.40;;;;;;5004856;28;88235;-39
2022/01/06 01:53:36;;;;;;;;;;;8.50;84.50;;;;;;5004415;28;89478;-40
2022/01/06 01:56:04;;;;;;;;;;;8.50;84.40;;;;;;5007405;28;88159;-39
2022/01/06 01:58:30;;;;;;;;;;;8.50;84.40;;;;;;5004106;28;89640;-40
2022/01/06 02:00:55;;;;;;;;;;;8.50;84.50;;;;;;5004814;28;87159;-39
2022/01/06 02:03:21;;;;;;;;;;;8.50;84.50;;;;;;5004523;28;89304;-39
2022/01/06 02:05:46;;;;;;;;;;;8.50;84.40;;;;;;5004260;28;89771;-39
2022/01/06 02:08:12;;;;;;;;;;;8.50;84.50;;;;;;5004392;28;87126;-39
2022/01/06 02:10:37;;;;;;;;;;;8.50;84.40;;;;;;5004709;28;87409;-39
2022/01/06 02:13:03;;;;;;;;;;;8.50;84.40;;;;;;5004175;28;88905;-40
2022/01/06 02:15:29;;;;;;;;;;;8.50;84.40;;;;;;5004889;28;87104;-39
2022/01/06 02:17:55;;;;;;;;;;;8.50;84.40;;;;;;5007013;28;89230;-39
2022/01/06 02:20:21;;;;;;;;;;;8.50;84.40;;;;;;5003770;28;88087;-39
2022/01/06 02:22:48;;;;;;;;;;;8.40;84.30;;;;;;5004611;28;88399;-39
2022/01/06 02:25:15;;;;;;;;;;;8.40;84.40;;;;;;5003514;28;89078;-39
2022/01/06 02:27:40;;;;;;;;;;;8.40;84.30;;;;;;5004071;28;86865;-39
2022/01/06 02:30:07;;;;;;;;;;;8.40;84.30;;;;;;5004348;28;88486;-39
2022/01/06 02:32:32;;;;;;;;;;;8.40;84.20;;;;;;5003798;28;89586;-39
2022/01/06 02:35:02;;;;;;;;;;;8.40;84.10;;;;;;5004194;28;86974;-39
2022/01/06 02:37:27;;;;;;;;;;;8.50;84.10;;;;;;5004430;28;89003;-40
2022/01/06 02:39:53;;;;;;;;;;;8.40;84.00;;;;;;5006530;28;90034;-39
2022/01/06 02:42:18;;;;;;;;;;;8.40;84.00;;;;;;5003695;28;89045;-40
2022/01/06 02:44:44;;;;;;;;;;;8.40;83.90;;;;;;5002242;28;90439;-40
2022/01/06 02:47:09;;;;;;;;;;;8.40;84.00;;;;;;5003836;28;87166;-39
2022/01/06 02:49:35;;;;;;;;;;;8.40;83.90;;;;;;5004038;28;87796;-40
2022/01/06 02:52:00;;;;;;;;;;;8.40;84.00;;;;;;5003608;28;89199;-40
2022/01/06 02:54:27;;;;;;;;;;;8.40;84.00;;;;;;5003876;28;87125;-40
2022/01/06 02:56:52;;;;;;;;;;;8.40;84.60;;;;;;5003755;28;88878;-41
2022/01/06 02:59:18;;;;;;;;;;;8.40;83.90;;;;;;5003687;28;88715;-39
2022/01/06 03:01:44;;;;;;;;;;;8.40;84.00;;;;;;5006974;28;86412;-40
2022/01/06 03:04:11;;;;;;;;;;;8.40;84.00;;;;;;5003562;28;88028;-40
2022/01/06 03:06:37;;;;;;;;;;;8.40;84.00;;;;;;5003523;28;87063;-40
2022/01/06 03:09:02;;;;;;;;;;;8.40;84.00;;;;;;5003191;28;88985;-40
2022/01/06 03:11:28;;;;;;;;;;;8.40;84.00;;;;;;5003266;28;89625;-40
2022/01/06 03:13:55;;;;;;;;;;;8.40;84.00;;;;;;5003821;28;87166;-40
2022/01/06 03:16:20;;;;;;;;;;;8.40;84.00;;;;;;5003781;28;88610;-40
2022/01/06 03:18:46;;;;;;;;;;;8.40;84.00;;;;;;5003084;28;89505;-40
2022/01/06 03:21:11;;;;;;;;;;;8.40;84.00;;;;;;5003489;28;86904;-39
2022/01/06 03:23:37;;;;;;;;;;;8.40;84.00;;;;;;5005940;28;88724;-40
2022/01/06 03:26:03;;;;;;;;;;;8.30;84.00;;;;;;5003739;28;88158;-40
2022/01/06 03:28:28;;;;;;;;;;;8.40;84.10;;;;;;5003402;28;88079;-40
2022/01/06 03:30:54;;;;;;;;;;;8.30;84.10;;;;;;5003567;28;87160;-39
2022/01/06 03:33:20;;;;;;;;;;;8.40;84.10;;;;;;5002605;28;87982;-40
2022/01/06 03:35:45;;;;;;;;;;;8.30;84.10;;;;;;5003370;28;89780;-39
2022/01/06 03:38:11;;;;;;;;;;;8.40;84.10;;;;;;5002748;28;89660;-39
2022/01/06 03:40:37;;;;;;;;;;;8.30;84.10;;;;;;5003389;28;87045;-39
2022/01/06 03:43:02;;;;;;;;;;;8.30;84.10;;;;;;5005554;28;89034;-40
2022/01/06 03:45:28;;;;;;;;;;;8.30;84.10;;;;;;5003326;28;87205;-40
2022/01/06 03:47:53;;;;;;;;;;;8.30;84.00;;;;;;5003206;28;88679;-39
2022/01/06 03:50:19;;;;;;;;;;;8.30;84.10;;;;;;5003418;28;87765;-40
2022/01/06 03:52:45;;;;;;;;;;;8.30;84.10;;;;;;5003258;28;87192;-40
2022/01/06 03:55:11;;;;;;;;;;;8.30;84.00;;;;;;5004859;28;89091;-40
2022/01/06 03:57:37;;;;;;;;;;;8.30;84.00;;;;;;5005174;28;89468;-40
2022/01/06 04:00:07;;;;;;;;;;;8.30;84.00;;;;;;5006662;28;87050;-39
2022/01/06 04:02:33;;;;;;;;;;;8.30;84.10;;;;;;5006399;28;89299;-40
2022/01/06 04:04:58;;;;;;;;;;;8.30;84.10;;;;;;5009250;28;89422;-40
2022/01/06 04:07:24;;;;;;;;;;;8.30;84.10;;;;;;5006896;28;86937;-40
2022/01/06 04:09:49;;;;;;;;;;;8.30;84.00;;;;;;5006093;28;89289;-39
2022/01/06 04:12:15;;;;;;;;;;;8.30;84.00;;;;;;5005884;28;86996;-39
2022/01/06 04:14:40;;;;;;;;;;;8.30;83.90;;;;;;5007128;28;87228;-39
2022/01/06 04:17:07;;;;;;;;;;;8.30;84.10;;;;;;5005899;28;89445;-39
2022/01/06 04:19:34;;;;;;;;;;;8.20;84.00;;;;;;5006211;28;87182;-40
2022/01/06 04:22:00;;;;;;;;;;;8.20;83.80;;;;;;5005674;28;88686;-40
2022/01/06 04:24:26;;;;;;;;;;;8.30;83.90;;;;;;5005908;28;88199;-39
2022/01/06 04:26:51;;;;;;;;;;;8.20;83.90;;;;;;5008370;28;87146;-39
2022/01/06 04:29:17;;;;;;;;;;;8.20;84.00;;;;;;5006003;28;88454;-39
2022/01/06 04:31:42;;;;;;;;;;;8.20;83.90;;;;;;5005836;28;86897;-39
2022/01/06 04:34:08;;;;;;;;;;;8.20;83.80;;;;;;5005943;28;89384;-40
2022/01/06 04:36:33;;;;;;;;;;;8.20;83.80;;;;;;5005614;28;89542;-39
2022/01/06 04:38:59;;;;;;;;;;;8.30;83.90;;;;;;5006300;28;86181;-39
2022/01/06 04:41:24;;;;;;;;;;;8.20;83.90;;;;;;5005695;28;88193;-39
2022/01/06 04:43:50;;;;;;;;;;;8.20;83.90;;;;;;5005538;28;89674;-40
2022/01/06 04:46:15;;;;;;;;;;;8.20;83.90;;;;;;5005466;28;87858;-40
2022/01/06 04:48:41;;;;;;;;;;;8.20;84.00;;;;;;5008240;28;89705;-39
2022/01/06 04:51:07;;;;;;;;;;;8.20;83.90;;;;;;5005765;28;87377;-39
2022/01/06 04:53:33;;;;;;;;;;;8.20;83.90;;;;;;5005776;28;88747;-39
2022/01/06 04:56:00;;;;;;;;;;;8.20;83.90;;;;;;5005256;28;89535;-40
2022/01/06 04:58:27;;;;;;;;;;;8.20;83.80;;;;;;5005596;28;87145;-40
2022/01/06 05:00:52;;;;;;;;;;;8.20;83.80;;;;;;5005720;28;87939;-40
2022/01/06 05:03:18;;;;;;;;;;;8.20;83.80;;;;;;5005857;28;89559;-40
2022/01/06 05:05:43;;;;;;;;;;;8.20;83.80;;;;;;5005394;28;86876;-39
2022/01/06 05:08:09;;;;;;;;;;;8.20;83.70;;;;;;5005158;28;89184;-39
2022/01/06 05:10:34;;;;;;;;;;;8.20;83.70;;;;;;5007394;28;90586;-40
2022/01/06 05:13:00;;;;;;;;;;;8.10;83.70;;;;;;5005119;28;89876;-40
2022/01/06 05:15:26;;;;;;;;;;;8.20;83.60;;;;;;5005281;28;89261;-40
2022/01/06 05:17:51;;;;;;;;;;;8.10;83.60;;;;;;5005147;28;87089;-39
2022/01/06 05:20:20;;;;;;;;;;;8.10;83.70;;;;;;5005583;28;87120;-39
2022/01/06 05:22:45;;;;;;;;;;;8.10;83.70;;;;;;5004849;28;88494;-40
2022/01/06 05:25:12;;;;;;;;;;;8.10;83.70;;;;;;5005214;28;87138;-39
2022/01/06 05:27:37;;;;;;;;;;;8.10;83.70;;;;;;5005468;28;88704;-39
2022/01/06 05:30:04;;;;;;;;;;;8.10;83.80;;;;;;5005203;28;86963;-40
2022/01/06 05:32:29;;;;;;;;;;;8.10;83.80;;;;;;5008103;28;86947;-40
2022/01/06 05:34:55;;;;;;;;;;;8.10;83.70;;;;;;5003977;28;91059;-40
2022/01/06 05:37:20;;;;;;;;;;;8.10;83.70;;;;;;5004788;28;86895;-40
2022/01/06 05:39:46;;;;;;;;;;;8.10;83.70;;;;;;5005031;28;89117;-40
2022/01/06 05:42:13;;;;;;;;;;;8.10;83.70;;;;;;5004405;28;89626;-39
2022/01/06 05:44:42;;;;;;;;;;;8.10;83.70;;;;;;5005154;28;87335;-40
2022/01/06 05:47:08;;;;;;;;;;;8.10;83.60;;;;;;5005040;28;88992;-39
2022/01/06 05:49:33;;;;;;;;;;;8.10;83.70;;;;;;5004452;28;89525;-40
2022/01/06 05:51:59;;;;;;;;;;;8.10;83.80;;;;;;5008051;28;86306;-39
2022/01/06 05:54:24;;;;;;;;;;;8.10;83.70;;;;;;5004438;28;90324;-40
2022/01/06 05:56:50;;;;;;;;;;;8.10;83.70;;;;;;5004944;28;86855;-39
2022/01/06 05:59:15;;;;;;;;;;;8.10;83.60;;;;;;5004188;28;87875;-39
2022/01/06 06:01:41;;;;;;;;;;;8.10;83.60;;;;;;5004374;28;89684;-39
2022/01/06 06:04:07;;;;;;;;;;;8.00;83.60;;;;;;5004779;28;87162;-39
2022/01/06 06:06:32;;;;;;;;;;;8.00;83.60;;;;;;5004475;28;88804;-40
2022/01/06 06:08:58;;;;;;;;;;;8.00;83.60;;;;;;5004417;28;88128;-38
2022/01/06 06:11:24;;;;;;;;;;;8.00;83.50;;;;;;5004323;28;87059;-39
2022/01/06 06:13:49;;;;;;;;;;;8.00;83.50;;;;;;5007096;28;89062;-40
2022/01/06 06:16:15;;;;;;;;;;;8.00;83.40;;;;;;5004967;28;86330;-40
2022/01/06 06:18:40;;;;;;;;;;;8.00;83.50;;;;;;5003268;28;87171;-39
2022/01/06 06:21:06;;;;;;;;;;;8.00;83.50;;;;;;5003980;28;88684;-40
2022/01/06 06:23:32;;;;;;;;;;;8.00;83.50;;;;;;5003726;28;87817;-39
2022/01/06 06:25:58;;;;;;;;;;;8.00;83.50;;;;;;5003410;28;90026;-39
2022/01/06 06:28:23;;;;;;;;;;;8.00;83.50;;;;;;5003908;28;89586;-39
2022/01/06 06:30:49;;;;;;;;;;;8.00;83.50;;;;;;5004125;28;87016;-40
2022/01/06 06:33:14;;;;;;;;;;;8.00;83.50;;;;;;5004539;28;87431;-39
2022/01/06 06:35:40;;;;;;;;;;;8.00;83.50;;;;;;5007091;28;87827;-40
2022/01/06 06:38:05;;;;;;;;;;;8.00;83.50;;;;;;5004073;28;88792;-39
2022/01/06 06:40:31;;;;;;;;;;;8.00;83.40;;;;;;5004060;28;88938;-40
2022/01/06 06:42:56;;;;;;;;;;;8.00;83.50;;;;;;5004099;28;87055;-39
2022/01/06 06:45:23;;;;;;;;;;;8.00;83.50;;;;;;5003976;28;88881;-39
2022/01/06 06:47:49;;;;;;;;;;;8.00;83.40;;;;;;5003071;28;90372;-40
2022/01/06 06:50:16;;;;;;;;;;;8.00;83.40;;;;;;5004209;28;87098;-40
2022/01/06 06:52:44;;;;;;;;;;;8.00;83.40;;;;;;5003949;28;88965;-40
2022/01/06 06:55:11;;;;;;;;;;;8.00;83.40;;;;;;5003399;28;89299;-40
2022/01/06 06:57:37;;;;;;;;;;;8.00;83.50;;;;;;5006621;28;87125;-40
2022/01/06 07:00:04;;;;;;;;;;;8.00;83.40;;;;;;5003806;28;87932;-39
2022/01/06 07:02:30;;;;;;;;;;;8.00;83.50;;;;;;5002374;28;87007;-39
2022/01/06 07:04:55;;;;;;;;;;;7.90;83.50;;;;;;5004313;28;87933;-40
2022/01/06 07:07:21;;;;;;;;;;;8.00;83.60;;;;;;5003263;28;89770;-40
2022/01/06 07:09:47;;;;;;;;;;;8.00;83.60;;;;;;5003757;28;87167;-39
2022/01/06 07:12:12;;;;;;;;;;;7.90;83.50;;;;;;5003243;28;87919;-39
2022/01/06 07:14:38;;;;;;;;;;;8.00;83.60;;;;;;5003294;28;89580;-39
2022/01/06 07:17:03;;;;;;;;;;;8.00;83.60;;;;;;5003725;28;87190;-39
2022/01/06 07:19:29;;;;;;;;;;;8.00;83.50;;;;;;5006307;28;87251;-39
2022/01/06 07:21:54;;;;;;;;;;;8.00;83.50;;;;;;5003747;28;86992;-39
2022/01/06 07:24:20;;;;;;;;;;;8.00;84.10;;;;;;5003453;28;88936;-40
2022/01/06 07:26:45;;;;;;;;;;;8.00;83.60;;;;;;5002741;28;87886;-39
2022/01/06 07:29:11;;;;;;;;;;;8.00;83.50;;;;;;5003419;28;86429;-39
2022/01/06 07:31:36;;;;;;;;;;;8.00;84.10;;;;;;5003567;28;88276;-40
2022/01/06 07:34:02;;;;;;;;;;;7.90;83.50;;;;;;5003058;28;89473;-40
2022/01/06 07:36:28;;;;;;;;;;;8.00;83.60;;;;;;5002485;28;88209;-39
2022/01/06 07:38:53;;;;;;;;;;;8.00;84.20;;;;;;5005789;28;89713;-40
2022/01/06 07:41:19;;;;;;;;;;;8.00;83.60;;;;;;5002860;28;87051;-41
2022/01/06 07:43:44;;;;;;;;;;;8.00;83.50;;;;;;5003195;28;89542;-40
2022/01/06 07:46:10;;;;;;;;;;;8.00;83.60;;;;;;5002793;28;89629;-40
2022/01/06 07:48:55;;;;;;;;;;;8.00;83.50;;;;;;5003126;28;87209;-40
2022/01/06 07:51:21;;;;;;;;;;;8.00;83.50;;;;;;5003372;28;88683;-40
2022/01/06 07:53:47;;;;;;;;;;;8.00;83.50;;;;;;5003160;28;88800;-39
2022/01/06 07:56:12;;;;;;;;;;;8.00;83.60;;;;;;5003349;28;87162;-40
2022/01/06 07:58:38;;;;;;;;;;;7.90;83.50;;;;;;5002934;28;89035;-40
2022/01/06 08:01:03;;;;;;;;;;;8.00;83.50;;;;;;5005182;28;89173;-40
2022/01/06 08:03:29;;;;;;;;;;;8.00;83.50;;;;;;5003003;28;89866;-39
2022/01/06 08:05:54;;;;;;;;;;;8.00;83.50;;;;;;5002792;28;87968;-39
2022/01/06 08:08:20;;;;;;;;;;;8.00;83.60;;;;;;5002891;28;87166;-39
2022/01/06 08:10:46;;;;;;;;;;;7.90;83.60;;;;;;5003124;28;88771;-39
2022/01/06 08:13:11;;;;;;;;;;;8.00;83.50;;;;;;5002390;28;89744;-40
2022/01/06 08:15:37;;;;;;;;;;;8.00;83.60;;;;;;5002880;28;87259;-39
2022/01/06 08:18:02;;;;;;;;;;;8.00;83.70;;;;;;5003108;28;88976;-39
2022/01/06 08:20:28;;;;;;;;;;;7.90;83.70;;;;;;5002379;28;88335;-40
2022/01/06 08:22:53;;;;;;;;;;;7.90;83.60;;;;;;5005635;28;87147;-40
2022/01/06 08:25:19;;;;;;;;;;;8.00;83.50;;;;;;5001148;28;89442;-39
2022/01/06 08:27:44;;;;;;;;;;;8.00;83.60;;;;;;5002891;28;86983;-39
2022/01/06 08:30:10;;;;;;;;;;;8.00;83.50;;;;;;5002669;28;88969;-40
2022/01/06 08:32:36;;;;;;;;;;;8.00;83.40;;;;;;5002545;28;87347;-40
2022/01/06 08:35:02;;;;;;;;;;;8.00;83.40;;;;;;5002560;28;87073;-39
2022/01/06 08:37:27;;;;;;;;;;;8.00;83.30;;;;;;5002392;28;87942;-39
2022/01/06 08:39:53;;;;;;;;;;;8.00;83.30;;;;;;5002144;28;89371;-40
2022/01/06 08:42:18;;;;;;;;;;;8.00;83.30;;;;;;5004610;28;86458;-40
2022/01/06 08:44:44;;;;;;;;;;;8.00;83.20;;;;;;5008583;28;87858;-39
2022/01/06 08:47:10;;;;;;;;;;;8.00;83.20;;;;;;5005849;28;87166;-39
2022/01/06 08:49:36;;;;;;;;;;;8.00;83.10;;;;;;5005333;28;88897;-40
2022/01/06 08:52:02;;;;;;;;;;;8.00;83.10;;;;;;5005611;28;88318;-40
2022/01/06 08:54:28;;;;;;;;;;;8.00;83.10;;;;;;5005483;28;87124;-39
2022/01/06 08:56:53;;;;;;;;;;;8.00;83.10;;;;;;5005785;28;88878;-39
2022/01/06 08:59:19;;;;;;;;;;;8.00;83.00;;;;;;5005513;28;89536;-39
2022/01/06 09:01:45;;;;;;;;;;;8.00;83.00;;;;;;5005723;28;87104;-40
2022/01/06 09:04:10;;;;;;;;;;;8.00;83.00;;;;;;5005572;28;89004;-40
2022/01/06 09:06:36;;;;;;;;;;;8.00;83.00;;;;;;5008576;28;88922;-39
2022/01/06 09:09:01;;;;;;;;;;;8.00;82.90;;;;;;5005475;28;88003;-40
2022/01/06 09:11:27;;;;;;;;;;;8.00;83.00;;;;;;5005026;28;89403;-39
2022/01/06 09:13:52;;;;;;;;;;;8.00;83.00;;;;;;5004669;28;88090;-39
2022/01/06 09:16:18;;;;;;;;;;;8.00;83.70;;;;;;5005285;28;90158;-39
2022/01/06 09:18:44;;;;;;;;;;;8.00;83.10;;;;;;5004979;28;89484;-40
2022/01/06 09:21:09;;;;;;;;;;;8.00;83.30;;;;;;5005189;28;87084;-39
2022/01/06 09:23:35;;;;;;;;;;;8.00;82.50;;;;;;5005295;28;88710;-39
2022/01/06 09:26:01;;;;;;;;;;;8.00;83.00;;;;;;5004377;28;89403;-40
2022/01/06 09:28:26;;;;;;;;;;;8.10;82.80;;;;;;5008253;28;86979;-39
2022/01/06 09:30:52;;;;;;;;;;;8.00;82.80;;;;;;5005225;28;88921;-39
2022/01/06 09:33:19;;;;;;;;;;;8.10;82.70;;;;;;5005075;28;86961;-40
2022/01/06 09:35:46;;;;;;;;;;;8.10;82.70;;;;;;5005183;28;89151;-40
2022/01/06 09:38:11;;;;;;;;;;;8.10;82.80;;;;;;5002795;28;89641;-40
2022/01/06 09:40:40;;;;;;;;;;;8.10;82.50;;;;;;5005163;28;87201;-40
2022/01/06 09:43:06;;;;;;;;;;;8.10;82.70;;;;;;5005303;28;87762;-39
2022/01/06 09:45:32;;;;;;;;;;;8.00;82.80;;;;;;5004718;28;89318;-40
2022/01/06 09:47:58;;;;;;;;;;;8.00;82.90;;;;;;5007901;28;87191;-39
2022/01/06 09:50:24;;;;;;;;;;;8.10;83.10;;;;;;5004489;28;89673;-39
2022/01/06 09:52:50;;;;;;;;;;;8.10;83.10;;;;;;5004453;28;86986;-39
2022/01/06 09:55:15;;;;;;;;;;;8.10;83.10;;;;;;5005367;28;87270;-40
2022/01/06 09:57:48;;;;;;;;;;;8.10;83.00;;;;;;5004415;28;89238;-40
2022/01/06 10:00:14;;;;;;;;;;;8.10;82.90;;;;;;5004891;28;86976;-40
2022/01/06 10:02:40;;;;;;;;;;;8.10;82.70;;;;;;5004150;28;88932;-40
2022/01/06 10:05:06;;;;;;;;;;;8.10;82.80;;;;;;5004617;28;87297;-40
2022/01/06 10:07:38;;;;;;;;;;;8.10;82.90;;;;;;5004633;28;87162;-40
2022/01/06 10:10:05;;;;;;;;;;;8.10;82.70;;;;;;5007219;28;89009;-39
2022/01/06 10:12:30;;;;;;;;;;;8.10;82.70;;;;;;5004430;28;87094;-39
2022/01/06 10:14:56;;;;;;;;;;;8.10;82.80;;;;;;5004649;28;89221;-40
2022/01/06 10:17:29;;;;;;;;;;;8.20;82.90;;;;;;5004320;28;88038;-39
2022/01/06 10:19:55;;;;;;;;;;;8.20;82.90;;;;;;5004849;28;86513;-40
2022/01/06 10:22:21;;;;;;;;;;;8.20;82.90;;;;;;5004282;28;87046;-40
2022/01/06 10:24:47;;;;;;;;;;;8.20;83.60;;;;;;5004319;28;88990;-39
2022/01/06 10:27:15;;;;;;;;;;;8.20;83.00;;;;;;5003209;28;87950;-40
2022/01/06 10:29:43;;;;;;;;;;;8.20;83.00;;;;;;5004367;28;89819;-40
2022/01/06 10:32:13;;;;;;;;;;;8.20;83.00;;;;;;5006734;28;89215;-40
2022/01/06 10:34:41;;;;;;;;;;;8.20;83.00;;;;;;5004202;28;89381;-40
2022/01/06 10:37:24;;;;;;;;;;;8.30;83.00;;;;;;5003567;28;89496;-40
2022/01/06 10:39:50;;;;;;;;;;;8.30;83.10;;;;;;5003934;28;87132;-39
2022/01/06 10:42:16;;;;;;;;;;;8.20;83.90;;;;;;5004168;28;89112;-40
2022/01/06 10:44:49;;;;;;;;;;;8.20;83.30;;;;;;5004258;28;88802;-40
2022/01/06 10:47:27;;;;;;;;;;;8.30;83.20;;;;;;5003970;28;87110;-39
2022/01/06 10:49:53;;;;;;;;;;;8.30;83.00;;;;;;5004405;28;89052;-40
2022/01/06 10:52:25;;;;;;;;;;;8.30;82.90;;;;;;5002904;28;90652;-40
2022/01/06 10:54:51;;;;;;;;;;;8.30;83.20;;;;;;5006909;28;86904;-40
2022/01/06 10:57:17;;;;;;;;;;;8.30;83.10;;;;;;5003647;28;88199;-40
2022/01/06 10:59:44;;;;;;;;;;;8.30;83.30;;;;;;5003976;28;87076;-39
2022/01/06 11:02:23;;;;;;;;;;;8.30;83.30;;;;;;5003836;28;89093;-40
2022/01/06 11:04:48;;;;;;;;;;;8.40;83.30;;;;;;5002697;28;89458;-39
2022/01/06 11:07:14;;;;;;;;;;;8.40;83.50;;;;;;5003877;28;87247;-40
2022/01/06 11:09:42;;;;;;;;;;;8.30;83.30;;;;;;5004127;28;89311;-39
2022/01/06 11:12:26;;;;;;;;;;;8.40;83.50;;;;;;5003373;28;89334;-40
2022/01/06 11:14:52;;;;;;;;;;;8.40;83.50;;;;;;5003774;28;86956;-39
2022/01/06 11:17:21;;;;;;;;;;;8.40;83.40;;;;;;5005552;28;88982;-39
2022/01/06 11:19:49;;;;;;;;;;;8.40;83.40;;;;;;5003275;28;87145;-40
2022/01/06 11:22:16;;;;;;;;;;;8.40;83.50;;;;;;5003316;28;88907;-39
2022/01/06 11:24:51;;;;;;;;;;;8.40;83.40;;;;;;5002999;28;89994;-40
2022/01/06 11:27:16;;;;;;;;;;;8.40;83.60;;;;;;5002973;28;87074;-40
2022/01/06 11:29:43;;;;;;;;;;;8.40;83.40;;;;;;5003479;28;88064;-40
2022/01/06 11:32:28;;;;;;;;;;;8.40;83.30;;;;;;5002733;28;89646;-40
2022/01/06 11:35:04;;;;;;;;;;;8.40;83.40;;;;;;5003128;28;86353;-40
2022/01/06 11:37:49;;;;;;;;;;;8.50;83.50;;;;;;5002859;28;89481;-40
2022/01/06 11:40:16;;;;;;;;;;;8.50;83.60;;;;;;5005452;28;89539;-40
2022/01/06 11:42:52;;;;;;;;;;;8.50;83.50;;;;;;5002354;28;88454;-39
2022/01/06 11:45:18;;;;;;;;;;;8.50;83.60;;;;;;5002825;28;89890;-40
2022/01/06 11:47:44;;;;;;;;;;;8.60;83.60;;;;;;5002980;28;87157;-39
2022/01/06 11:50:25;;;;;;;;;;;8.60;83.60;;;;;;5002773;28;87572;-40
2022/01/06 11:52:57;;;;;;;;;;;8.60;83.80;;;;;;5002546;28;89364;-40
2022/01/06 11:55:24;;;;;;;;;;;8.60;84.30;;;;;;5001643;28;87154;-39
2022/01/06 11:57:50;;;;;;;;;;;8.60;84.20;;;;;;5002730;28;89084;-40
2022/01/06 12:00:25;;;;;;;;;;;8.60;84.10;;;;;;5005814;28;88544;-40
2022/01/06 12:03:00;;;;;;;;;;;8.70;84.10;;;;;;5001513;28;89487;-40
2022/01/06 12:05:26;;;;;;;;;;;8.60;84.20;;;;;;5002507;28;89755;-40
2022/01/06 12:07:52;;;;;;;;;;;8.70;84.40;;;;;;5002221;28;88018;-39
2022/01/06 12:10:20;;;;;;;;;;;8.70;84.40;;;;;;5003001;28;89837;-40
2022/01/06 12:12:47;;;;;;;;;;;8.70;84.50;;;;;;5002564;28;89247;-40
2022/01/06 12:15:14;;;;;;;;;;;8.70;84.40;;;;;;5002842;28;87149;-40
2022/01/06 12:17:51;;;;;;;;;;;8.70;84.50;;;;;;5004809;28;88712;-41
2022/01/06 12:20:27;;;;;;;;;;;8.80;82.20;;;;;;5006046;28;89919;-43
2022/01/06 12:22:53;;;;;;;;;;;8.90;80.70;;;;;;5009317;28;87162;-40
2022/01/06 12:25:23;;;;;;;;;;;9.30;76.50;;;;;;5006026;28;88694;-41
2022/01/06 12:27:50;;;;;;;;;;;9.40;79.00;;;;;;5006165;28;87173;-41
2022/01/06 12:30:17;;;;;;;;;;;9.40;78.50;;;;;;5006102;28;89177;-40
2022/01/06 12:32:42;;;;;;;;;;;9.40;78.80;;;;;;5005252;28;88997;-40
2022/01/06 12:35:08;;;;;;;;;;;9.40;76.90;;;;;;5006104;28;87162;-39
2022/01/06 12:37:33;;;;;;;;;;;9.40;77.40;;;;;;5006001;28;88752;-39
2022/01/06 12:40:00;;;;;;;;;;;9.50;77.20;;;;;;5005873;28;88243;-40
2022/01/06 12:42:25;;;;;;;;;;;9.60;75.20;;;;;;5005790;28;87091;-40
2022/01/06 12:44:51;;;;;;;;;;;9.60;74.40;;;;;;5008546;28;88406;-41
2022/01/06 12:47:16;;;;;;;;;;;9.60;74.40;;;;;;5006052;28;87134;-40
2022/01/06 12:49:42;;;;;;;;;;;9.60;76.10;;;;;;5006672;28;87307;-40
2022/01/06 12:52:08;;;;;;;;;;;9.70;74.80;;;;;;5005628;28;88194;-40
2022/01/06 12:54:35;;;;;;;;;;;9.70;72.90;;;;;;5005898;28;87153;-40
2022/01/06 12:57:02;;;;;;;;;;;9.70;73.20;;;;;;5005050;28;88562;-41
2022/01/06 12:59:35;;;;;;;;;;;9.70;73.50;;;;;;5005175;28;89449;-45
2022/01/06 13:02:02;;;;;;;;;;;9.80;73.70;;;;;;5005485;28;87086;-40
2022/01/06 13:04:29;;;;;;;;;;;9.90;73.80;;;;;;5005668;28;89140;-42
2022/01/06 13:06:56;;;;;;;;;;;9.90;73.00;;;;;;5008064;28;89412;-43
2022/01/06 13:09:23;;;;;;;;;;;9.90;72.10;;;;;;5005497;28;87144;-43
2022/01/06 13:11:51;;;;;;;;;;;9.90;71.70;;;;;;5005172;28;89033;-41
2022/01/06 13:14:28;;;;;;;;;;;9.90;71.90;;;;;;5006002;28;86396;-42
2022/01/06 13:17:14;;;;;;;;;;;9.80;74.50;;;;;;5005475;28;87292;-45
2022/01/06 13:20:00;;;;;;;;;;;9.80;72.40;;;;;;5000515;28;88380;-45
2022/01/06 13:25:32;;;;;;;;;;;9.80;72.60;;;;;;5003659;28;88323;-44
2022/01/06 13:27:58;;;;;;;;;;;9.80;70.90;;;;;;5004402;28;89282;-45
2022/01/06 13:30:29;;;;;;;;;;;9.80;70.70;;;;;;5007937;28;87135;-43
2022/01/06 13:32:55;;;;;;;;;;;9.80;70.20;;;;;;5004768;28;89968;-44
2022/01/06 13:35:21;;;;;;;;;;;9.90;70.70;;;;;;5005213;28;87200;-45
2022/01/06 13:37:46;;;;;;;;;;;9.90;71.10;;;;;;5005077;28;89104;-42
2022/01/06 13:40:12;;;;;;;;;;;9.90;71.30;;;;;;5005148;28;89083;-42
2022/01/06 13:42:39;;;;;;;;;;;9.90;69.50;;;;;;5005045;28;87126;-43
2022/01/06 13:45:12;;;;;;;;;;;9.90;69.10;;;;;;5004518;28;88439;-43
2022/01/06 13:47:54;;;;;;;;;;;9.90;69.10;;;;;;5003874;28;90183;-43
2022/01/06 13:53:15;;;;;;;;;;;9.90;69.20;;;;;;5007179;28;86920;-42
2022/01/06 13:55:41;;;;;;;;;;;9.90;69.70;;;;;;5004956;28;87086;-43
2022/01/06 13:58:06;;;;;;;;;;;9.90;69.20;;;;;;5004735;28;87055;-48
2022/01/06 14:00:32;;;;;;;;;;;10.00;69.00;;;;;;5004357;28;89959;-42
2022/01/06 14:02:57;;;;;;;;;;;10.00;69.60;;;;;;5004608;28;87172;-46
2022/01/06 14:05:24;;;;;;;;;;;10.10;68.70;;;;;;5005160;28;89301;-45
2022/01/06 14:07:50;;;;;;;;;;;10.10;68.90;;;;;;5004208;28;89671;-42
2022/01/06 14:10:16;;;;;;;;;;;10.10;69.10;;;;;;5004563;28;87206;-42
2022/01/06 14:12:41;;;;;;;;;;;10.20;69.40;;;;;;5006523;28;88570;-44
2022/01/06 14:15:07;;;;;;;;;;;10.20;70.20;;;;;;5004443;28;87063;-44
2022/01/06 14:17:33;;;;;;;;;;;10.20;71.70;;;;;;5004628;28;87828;-43
2022/01/06 14:19:58;;;;;;;;;;;10.20;72.60;;;;;;5004176;28;87966;-42
2022/01/06 14:22:25;;;;;;;;;;;10.20;69.20;;;;;;5004218;28;87234;-43
2022/01/06 14:24:52;;;;;;;;;;;10.10;69.60;;;;;;5004170;28;89282;-42
2022/01/06 14:27:17;;;;;;;;;;;10.10;67.90;;;;;;5003412;28;89173;-43
2022/01/06 14:29:43;;;;;;;;;;;10.10;70.00;;;;;;5004683;28;86149;-42
2022/01/06 14:32:09;;;;;;;;;;;10.00;69.50;;;;;;5004308;28;88125;-43
2022/01/06 14:34:34;;;;;;;;;;;10.00;69.30;;;;;;5006845;28;89356;-42
2022/01/06 14:37:01;;;;;;;;;;;10.00;68.20;;;;;;5004142;28;87769;-43
2022/01/06 14:39:26;;;;;;;;;;;10.00;68.60;;;;;;5002593;28;89094;-43